Decoded Metar for OIAA (ABADAN in IRAN) (IATA:ABD) | Meteo·Mobile Aviation Weather
aviador You're here:

OIAA Decoded Metar

ABADAN in IRAN
Report Time2018-12-19 06:00:00
UTC Time2018-12-19 06:19:38
Flight Rules ifr IFR
Wind330° at 08 kt
W.Decomp.*RWY 32: 7.9 kt HW 1.0 kt RCW
W.Rank330° ranks 1
Current wind is below 330° avg. (9.2)
Visibility2000 m
Phenomena:Mist
Clouds:N/A
Expected CloudBase > 800 ft AGL from Temp-Dew spread
CeilingNone
Temp15°C (ISA 0)
Dew Point13°C (88% RH)
AAT13.1°C
QNH1025 hPa
Density Alt-161 ft
Elevation36 ft
Report Wrong Elevation
Raw Report
METAR OIAA 190600Z 33008KT 2000 BR NSC 15/13 Q1025=

Extra information for OIAA:More info

Metar Taf Metar & Taf Last 4 Metars F.Rules Stats Wind Profile Meteogram Temp Stats Airport Information Weather charts Add Link Nearby VenuesMetar ALERT Operation Metar Decoded Social comments